createdAt,value
2018-12-23T00:00:48.018Z,10.13
2018-12-23T00:01:48.006Z,10.07
2018-12-23T00:02:47.995Z,10.17
2018-12-23T00:03:47.983Z,10.24
2018-12-23T00:04:47.976Z,10.18
2018-12-23T00:05:47.969Z,10.14
2018-12-23T00:06:47.958Z,10.14
2018-12-23T00:07:47.949Z,10.22
2018-12-23T00:08:47.940Z,10.18
2018-12-23T00:09:47.929Z,10.24
2018-12-23T00:10:47.918Z,10.14
2018-12-23T00:11:47.905Z,10.24
2018-12-23T00:12:47.895Z,10.17
2018-12-23T00:13:47.891Z,10.07
2018-12-23T00:14:47.883Z,10.18
2018-12-23T00:15:47.867Z,10.20
2018-12-23T00:16:47.858Z,10.17
2018-12-23T00:17:47.854Z,10.16
2018-12-23T00:18:47.841Z,10.18
2018-12-23T00:19:47.833Z,10.18
2018-12-23T00:20:47.826Z,10.17
2018-12-23T00:21:47.809Z,10.11
2018-12-23T00:22:47.798Z,10.17
2018-12-23T00:23:47.788Z,10.22
2018-12-23T00:24:47.780Z,10.14
2018-12-23T00:25:47.775Z,10.18
2018-12-23T00:26:47.764Z,10.17
2018-12-23T00:27:47.753Z,10.24
2018-12-23T00:28:47.744Z,10.20
2018-12-23T00:29:47.729Z,10.22
2018-12-23T00:30:47.719Z,10.13
2018-12-23T00:31:47.714Z,10.22
2018-12-23T00:32:47.705Z,10.24
2018-12-23T00:33:47.691Z,10.16
2018-12-23T00:34:47.680Z,10.22
2018-12-23T00:35:47.672Z,10.26
2018-12-23T00:36:47.662Z,10.13
2018-12-23T00:37:47.657Z,10.18
2018-12-23T00:38:47.651Z,10.20
2018-12-23T00:39:47.640Z,10.25
2018-12-23T00:40:47.628Z,10.17
2018-12-23T00:41:47.614Z,10.17
2018-12-23T00:42:47.604Z,10.22
2018-12-23T00:43:47.593Z,10.22
2018-12-23T00:44:47.584Z,10.22
2018-12-23T00:45:47.579Z,10.17
2018-12-23T00:46:47.569Z,10.20
2018-12-23T00:47:47.554Z,10.20
2018-12-23T00:48:47.546Z,10.22
2018-12-23T00:49:47.540Z,10.24
2018-12-23T00:50:47.529Z,10.25
2018-12-23T00:51:47.521Z,10.17
2018-12-23T00:52:47.512Z,10.18
2018-12-23T00:53:47.497Z,10.24
2018-12-23T00:54:47.486Z,10.20
2018-12-23T00:55:47.477Z,10.24
2018-12-23T00:56:47.468Z,10.20
2018-12-23T00:57:47.463Z,10.20
2018-12-23T00:58:47.452Z,10.29
2018-12-23T00:59:47.445Z,10.22
2018-12-23T01:00:47.433Z,10.20
2018-12-23T01:01:47.420Z,10.16
2018-12-23T01:02:47.409Z,10.22
2018-12-23T01:03:47.405Z,10.18
2018-12-23T01:04:47.396Z,10.18
2018-12-23T01:05:47.382Z,10.18
2018-12-23T01:06:47.372Z,10.17
2018-12-23T01:07:47.360Z,10.18
2018-12-23T01:08:47.352Z,10.10
2018-12-23T01:09:47.347Z,10.04
2018-12-23T01:10:47.338Z,10.06
2018-12-23T01:11:47.326Z,10.09
2018-12-23T01:12:47.317Z,9.99
2018-12-23T01:13:47.304Z,10.02
2018-12-23T01:14:47.292Z,9.98
2018-12-23T01:15:47.283Z,9.93
2018-12-23T01:16:47.275Z,9.95
2018-12-23T01:17:47.271Z,9.91
2018-12-23T01:18:47.259Z,9.99
2018-12-23T01:19:47.245Z,9.93
2018-12-23T01:20:47.234Z,9.85
2018-12-23T01:21:47.231Z,9.89
2018-12-23T01:22:47.219Z,9.89
2018-12-23T01:23:47.208Z,9.89
2018-12-23T01:24:47.201Z,9.85
2018-12-23T01:25:47.185Z,9.74
2018-12-23T01:26:47.174Z,9.73
2018-12-23T01:27:47.165Z,9.78
2018-12-23T01:28:47.155Z,9.80
2018-12-23T01:29:47.150Z,9.74
2018-12-23T01:30:47.138Z,9.83
2018-12-23T01:31:47.129Z,9.74
2018-12-23T01:32:47.120Z,9.77
2018-12-23T01:33:47.106Z,9.77
2018-12-23T01:34:47.096Z,9.73
2018-12-23T01:35:47.090Z,9.67
2018-12-23T01:36:47.082Z,9.62
2018-12-23T01:37:47.066Z,9.65
2018-12-23T01:38:47.055Z,9.67
2018-12-23T01:39:47.044Z,9.62
2018-12-23T01:40:47.034Z,9.68
2018-12-23T01:41:47.029Z,9.67
2018-12-23T01:42:47.020Z,9.70
2018-12-23T01:43:47.008Z,9.70
2018-12-23T01:44:46.999Z,9.67
2018-12-23T01:45:46.986Z,9.70
2018-12-23T01:46:46.974Z,9.58
2018-12-23T01:47:46.964Z,9.59
2018-12-23T01:48:46.954Z,9.63
2018-12-23T01:49:46.950Z,9.56
2018-12-23T01:50:46.940Z,9.63
2018-12-23T01:51:46.928Z,9.60
2018-12-23T01:52:46.914Z,9.58
2018-12-23T01:53:46.908Z,9.58
2018-12-23T01:54:46.899Z,9.53
2018-12-23T01:55:46.886Z,9.52
2018-12-23T01:56:46.877Z,9.53
2018-12-23T01:57:46.863Z,9.48
2018-12-23T01:58:46.851Z,9.58
2018-12-23T01:59:46.844Z,9.52
2018-12-23T02:00:46.832Z,9.53
2018-12-23T02:01:46.830Z,9.50
2018-12-23T02:02:46.833Z,9.49
2018-12-23T02:03:46.806Z,9.59
2018-12-23T02:04:46.795Z,9.52
2018-12-23T02:05:46.783Z,9.52
2018-12-23T02:06:46.770Z,9.49
2018-12-23T02:07:46.764Z,9.52
2018-12-23T02:08:46.754Z,9.55
2018-12-23T02:09:46.739Z,9.52
2018-12-23T02:10:46.728Z,9.52
2018-12-23T02:11:46.718Z,9.48
2018-12-23T02:12:46.709Z,9.49
2018-12-23T02:13:46.706Z,9.53
2018-12-23T02:14:46.693Z,9.58
2018-12-23T02:15:46.685Z,9.53
2018-12-23T02:16:46.674Z,9.50
2018-12-23T02:17:46.658Z,9.53
2018-12-23T02:18:46.648Z,9.49
2018-12-23T02:19:46.637Z,9.52
2018-12-23T02:20:46.626Z,9.58
2018-12-23T02:21:46.621Z,9.52
2018-12-23T02:22:46.610Z,9.42
2018-12-23T02:23:46.596Z,9.53
2018-12-23T02:24:46.590Z,9.52
2018-12-23T02:25:46.580Z,9.50
2018-12-23T02:26:46.569Z,9.50
2018-12-23T02:27:46.564Z,9.42
2018-12-23T02:28:46.550Z,9.44
2018-12-23T02:29:46.560Z,9.45
2018-12-23T02:30:46.524Z,9.41
2018-12-23T02:31:46.520Z,9.44
2018-12-23T02:32:46.505Z,9.40
2018-12-23T02:33:46.500Z,9.48
2018-12-23T02:34:46.489Z,9.40
2018-12-23T02:35:55.279Z,9.44
2018-12-23T02:36:46.469Z,9.44
2018-12-23T02:37:46.455Z,9.42
2018-12-23T02:38:46.442Z,9.40
2018-12-23T02:39:46.441Z,9.42
2018-12-23T02:40:46.426Z,9.41
2018-12-23T02:41:46.414Z,9.50
2018-12-23T02:42:46.401Z,9.52
2018-12-23T02:43:46.392Z,9.44
2018-12-23T02:44:46.382Z,9.58
2018-12-23T02:45:46.376Z,9.56
2018-12-23T02:46:46.365Z,9.45
2018-12-23T02:47:46.355Z,9.49
2018-12-23T02:48:46.353Z,9.49
2018-12-23T02:49:46.333Z,9.58
2018-12-23T02:50:46.323Z,9.50
2018-12-23T02:51:46.309Z,9.53
2018-12-23T02:52:46.304Z,9.52
2018-12-23T02:53:46.294Z,9.48
2018-12-23T02:54:46.282Z,9.60
2018-12-23T02:55:46.270Z,9.53
2018-12-23T02:56:46.259Z,9.56
2018-12-23T02:57:46.256Z,9.52
2018-12-23T02:58:46.242Z,9.56
2018-12-23T02:59:46.235Z,9.59
2018-12-23T03:00:46.225Z,9.58
2018-12-23T03:01:46.209Z,9.60
2018-12-23T03:02:46.199Z,9.53
2018-12-23T03:03:46.187Z,9.56
2018-12-23T03:04:46.178Z,9.63
2018-12-23T03:05:46.177Z,9.62
2018-12-23T03:06:46.269Z,9.59
2018-12-23T03:07:46.153Z,9.70
2018-12-23T03:08:46.151Z,9.65
2018-12-23T03:09:46.128Z,9.67
2018-12-23T03:10:46.118Z,9.68
2018-12-23T03:11:46.112Z,9.71
2018-12-23T03:12:46.103Z,9.67
2018-12-23T03:13:46.093Z,9.59
2018-12-23T03:14:46.183Z,9.60
2018-12-23T03:15:46.067Z,9.70
2018-12-23T03:16:46.058Z,9.65
2018-12-23T03:17:46.057Z,9.62
2018-12-23T03:18:46.041Z,9.65
2018-12-23T03:19:46.031Z,9.60
2018-12-23T03:20:46.023Z,9.70
2018-12-23T03:21:46.009Z,9.67
2018-12-23T03:22:45.996Z,9.67
2018-12-23T03:23:45.987Z,9.62
2018-12-23T03:24:45.978Z,9.62
2018-12-23T03:25:45.972Z,9.75
2018-12-23T03:26:45.961Z,9.68
2018-12-23T03:27:45.946Z,9.73
2018-12-23T03:28:45.937Z,9.59
2018-12-23T03:29:45.932Z,9.62
2018-12-23T03:30:45.923Z,9.62
2018-12-23T03:31:45.915Z,9.65
2018-12-23T03:32:45.903Z,9.60
2018-12-23T03:33:45.887Z,9.56
2018-12-23T03:34:45.877Z,9.53
2018-12-23T03:35:45.867Z,9.52
2018-12-23T03:36:45.855Z,9.55
2018-12-23T03:37:45.858Z,9.52
2018-12-23T03:38:45.841Z,9.60
2018-12-23T03:39:45.832Z,9.52
2018-12-23T03:40:45.822Z,9.53
2018-12-23T03:41:45.806Z,9.53
2018-12-23T03:42:45.795Z,9.53
2018-12-23T03:43:45.791Z,9.55
2018-12-23T03:44:45.790Z,9.53
2018-12-23T03:45:45.770Z,9.52
2018-12-23T03:46:45.762Z,9.52
2018-12-23T03:47:45.747Z,9.45
2018-12-23T03:48:45.736Z,9.48
2018-12-23T03:49:45.730Z,9.49
2018-12-23T03:50:45.719Z,9.40
2018-12-23T03:51:45.716Z,9.42
2018-12-23T03:52:45.700Z,9.41
2018-12-23T03:53:45.685Z,9.41
2018-12-23T03:54:45.674Z,9.38
2018-12-23T03:55:45.663Z,9.41
2018-12-23T03:56:45.653Z,9.41
2018-12-23T03:57:45.650Z,9.42
2018-12-23T03:58:45.640Z,9.37
2018-12-23T03:59:45.624Z,9.41
2018-12-23T04:00:45.612Z,9.40
2018-12-23T04:01:45.609Z,9.34
2018-12-23T04:02:45.597Z,9.38
2018-12-23T04:03:45.586Z,9.40
2018-12-23T04:04:45.579Z,9.35
2018-12-23T04:05:45.562Z,9.38
2018-12-23T04:06:45.552Z,9.41
2018-12-23T04:07:45.541Z,9.40
2018-12-23T04:08:45.531Z,9.34
2018-12-23T04:09:45.525Z,9.40
2018-12-23T04:10:45.514Z,9.37
2018-12-23T04:11:45.507Z,9.41
2018-12-23T04:12:45.495Z,9.37
2018-12-23T04:13:45.480Z,9.40
2018-12-23T04:14:45.470Z,9.34
2018-12-23T04:15:45.464Z,9.35
2018-12-23T04:16:45.455Z,9.31
2018-12-23T04:17:45.438Z,9.34
2018-12-23T04:18:45.428Z,9.37
2018-12-23T04:19:45.417Z,9.27
2018-12-23T04:20:45.407Z,9.27
2018-12-23T04:21:45.401Z,9.26
2018-12-23T04:22:45.391Z,9.32
2018-12-23T04:23:45.382Z,9.32
2018-12-23T04:24:45.369Z,9.26
2018-12-23T04:25:45.355Z,9.30
2018-12-23T04:26:45.344Z,9.27
2018-12-23T04:27:45.335Z,9.30
2018-12-23T04:28:45.325Z,9.27
2018-12-23T04:29:45.321Z,9.26
2018-12-23T04:30:45.309Z,9.37
2018-12-23T04:31:45.293Z,9.38
2018-12-23T04:32:45.285Z,9.40
2018-12-23T04:33:45.280Z,9.44
2018-12-23T04:34:45.271Z,9.38
2018-12-23T04:35:45.257Z,9.45
2018-12-23T04:36:45.246Z,9.44
2018-12-23T04:37:45.232Z,9.48
2018-12-23T04:38:45.222Z,9.50
2018-12-23T04:39:45.212Z,9.45
2018-12-23T04:40:45.202Z,9.44
2018-12-23T04:41:45.194Z,9.45
2018-12-23T04:42:45.184Z,9.42
2018-12-23T04:43:45.177Z,9.45
2018-12-23T04:44:45.167Z,9.48
2018-12-23T04:45:45.151Z,9.50
2018-12-23T04:46:45.139Z,9.45
2018-12-23T04:47:45.143Z,9.45
2018-12-23T04:48:45.124Z,9.45
2018-12-23T04:49:45.109Z,9.44
2018-12-23T04:50:45.100Z,9.40
2018-12-23T04:51:45.088Z,9.45
2018-12-23T04:52:45.078Z,9.45
2018-12-23T04:53:45.072Z,9.45
2018-12-23T04:54:45.065Z,9.45
2018-12-23T04:55:45.052Z,9.44
2018-12-23T04:56:45.041Z,9.55
2018-12-23T04:57:45.027Z,9.55
2018-12-23T04:58:45.019Z,9.45
2018-12-23T04:59:45.006Z,9.49
2018-12-23T05:00:44.997Z,9.58
2018-12-23T05:01:44.991Z,9.53
2018-12-23T05:02:44.981Z,9.50
2018-12-23T05:03:44.966Z,9.48
2018-12-23T05:04:44.955Z,9.50
2018-12-23T05:05:44.951Z,9.48
2018-12-23T05:06:44.944Z,9.42
2018-12-23T05:07:44.930Z,9.48
2018-12-23T05:08:44.920Z,9.44
2018-12-23T05:09:44.904Z,9.44
2018-12-23T05:10:44.893Z,9.44
2018-12-23T05:11:44.884Z,9.49
2018-12-23T05:12:44.875Z,9.44
2018-12-23T05:13:44.872Z,9.44
2018-12-23T05:14:44.939Z,9.45
2018-12-23T05:15:44.848Z,9.45
2018-12-23T05:16:44.839Z,9.53
2018-12-23T05:17:44.823Z,9.50
2018-12-23T05:18:44.811Z,9.45
2018-12-23T05:19:44.808Z,9.58
2018-12-23T05:20:44.798Z,9.48
2018-12-23T05:21:44.782Z,9.50
2018-12-23T05:22:44.772Z,9.49
2018-12-23T05:23:44.766Z,9.49
2018-12-23T05:24:44.757Z,9.52
2018-12-23T05:25:44.746Z,9.53
2018-12-23T05:26:44.736Z,9.59
2018-12-23T05:27:44.728Z,9.59
2018-12-23T05:28:44.716Z,9.59
2018-12-23T05:29:44.701Z,9.59
2018-12-23T05:30:44.690Z,9.53
2018-12-23T05:31:44.680Z,9.53
2018-12-23T05:32:44.672Z,9.58
2018-12-23T05:33:44.668Z,9.56
2018-12-23T05:34:44.655Z,9.65
2018-12-23T05:35:44.640Z,9.67
2018-12-23T05:36:52.376Z,9.67
2018-12-23T05:37:44.730Z,9.65
2018-12-23T05:38:44.615Z,9.62
2018-12-23T05:39:44.605Z,9.62
2018-12-23T05:40:44.599Z,9.70
2018-12-23T05:41:44.594Z,9.65
2018-12-23T05:42:44.571Z,9.67
2018-12-23T05:43:44.560Z,9.65
2018-12-23T05:44:44.551Z,9.70
2018-12-23T05:45:44.546Z,9.74
2018-12-23T05:46:44.534Z,9.75
2018-12-23T05:47:44.525Z,9.73
2018-12-23T05:48:44.515Z,9.81
2018-12-23T05:49:44.500Z,9.78
2018-12-23T05:50:44.490Z,9.78
2018-12-23T05:51:44.484Z,9.78
2018-12-23T05:52:44.475Z,9.74
2018-12-23T05:53:44.460Z,9.74
2018-12-23T05:54:44.451Z,9.75
2018-12-23T05:55:44.440Z,9.80
2018-12-23T05:56:44.430Z,9.83
2018-12-23T05:57:44.427Z,9.93
2018-12-23T05:58:44.414Z,9.88
2018-12-23T05:59:44.405Z,9.81
2018-12-23T06:00:44.396Z,9.92
2018-12-23T06:01:44.381Z,9.92
2018-12-23T06:02:44.370Z,9.92
2018-12-23T06:03:44.367Z,9.86
2018-12-23T06:04:44.350Z,9.89
2018-12-23T06:05:44.453Z,9.92
2018-12-23T06:06:44.336Z,9.85
2018-12-23T06:07:44.320Z,9.93
2018-12-23T06:08:44.311Z,9.89
2018-12-23T06:09:44.307Z,9.91
2018-12-23T06:10:44.295Z,9.91
2018-12-23T06:11:44.286Z,9.92
2018-12-23T06:12:44.277Z,9.89
2018-12-23T06:13:44.262Z,9.92
2018-12-23T06:14:44.251Z,9.93
2018-12-23T06:15:44.242Z,9.89
2018-12-23T06:16:44.231Z,9.92
2018-12-23T06:17:44.226Z,9.92
2018-12-23T06:18:44.217Z,9.91
2018-12-23T06:19:44.206Z,9.95
2018-12-23T06:20:44.200Z,9.95
2018-12-23T06:21:44.184Z,9.93
2018-12-23T06:22:44.172Z,9.93
2018-12-23T06:23:44.169Z,9.88
2018-12-23T06:24:44.159Z,9.92
2018-12-23T06:25:44.144Z,9.91
2018-12-23T06:26:44.132Z,9.93
2018-12-23T06:27:44.123Z,9.96
2018-12-23T06:28:45.324Z,9.96
2018-12-23T06:29:44.108Z,9.98
2018-12-23T06:30:44.098Z,9.96
2018-12-23T06:31:44.088Z,9.93
2018-12-23T06:32:44.079Z,9.89
2018-12-23T06:33:44.065Z,9.96
2018-12-23T06:34:44.054Z,10.06
2018-12-23T06:35:44.048Z,10.04
2018-12-23T06:36:44.036Z,9.98
2018-12-23T06:37:44.035Z,9.96
2018-12-23T06:38:44.021Z,10.10
2018-12-23T06:39:44.006Z,10.07
2018-12-23T06:40:43.998Z,10.14
2018-12-23T06:41:43.992Z,10.10
2018-12-23T06:42:43.982Z,10.09
2018-12-23T06:43:43.971Z,10.10
2018-12-23T06:44:43.964Z,10.09
2018-12-23T06:45:43.949Z,10.09
2018-12-23T06:46:43.938Z,10.10
2018-12-23T06:47:43.928Z,10.09
2018-12-23T06:48:43.919Z,10.10
2018-12-23T06:49:43.914Z,10.07
2018-12-23T06:50:43.904Z,10.10
2018-12-23T06:51:43.894Z,10.07
2018-12-23T06:52:43.886Z,10.10
2018-12-23T06:53:43.874Z,10.11
2018-12-23T06:54:43.860Z,10.09
2018-12-23T06:55:43.857Z,10.13
2018-12-23T06:56:43.847Z,10.13
2018-12-23T06:57:43.832Z,10.13
2018-12-23T06:58:43.822Z,10.10
2018-12-23T06:59:43.813Z,10.11
2018-12-23T07:00:43.803Z,10.14
2018-12-23T07:01:43.798Z,10.13
2018-12-23T07:02:43.788Z,10.17
2018-12-23T07:03:43.780Z,10.13
2018-12-23T07:04:43.769Z,10.22
2018-12-23T07:05:43.760Z,10.09
2018-12-23T07:06:43.744Z,10.13
2018-12-23T07:07:43.736Z,10.17
2018-12-23T07:08:43.727Z,10.11
2018-12-23T07:09:43.724Z,10.09
2018-12-23T07:10:43.712Z,10.16
2018-12-23T07:11:43.697Z,10.13
2018-12-23T07:12:43.688Z,10.13
2018-12-23T07:13:43.684Z,10.11
2018-12-23T07:14:43.692Z,10.16
2018-12-23T07:15:43.663Z,10.13
2018-12-23T07:16:43.653Z,10.14
2018-12-23T07:17:43.647Z,10.09
2018-12-23T07:18:43.630Z,10.18
2018-12-23T07:19:43.620Z,10.07
2018-12-23T07:20:43.611Z,10.11
2018-12-23T07:21:43.609Z,10.11
2018-12-23T07:22:43.595Z,10.10
2018-12-23T07:23:43.588Z,10.17
2018-12-23T07:24:43.576Z,10.16
2018-12-23T07:25:43.563Z,10.09
2018-12-23T07:26:43.752Z,10.13
2018-12-23T07:27:43.623Z,10.17
2018-12-23T07:28:43.539Z,10.07
2018-12-23T07:29:43.524Z,10.13
2018-12-23T07:30:43.515Z,10.13
2018-12-23T07:31:43.505Z,10.18
2018-12-23T07:32:43.495Z,10.16
2018-12-23T07:33:43.490Z,10.17
2018-12-23T07:34:43.480Z,10.14
2018-12-23T07:35:43.471Z,10.11
2018-12-23T07:36:49.501Z,10.24
2018-12-23T07:37:43.450Z,10.16
2018-12-23T07:38:43.439Z,10.17
2018-12-23T07:39:43.428Z,10.16
2018-12-23T07:40:43.419Z,10.24
2018-12-23T07:41:43.412Z,10.18
2018-12-23T07:42:43.402Z,10.22
2018-12-23T07:43:43.390Z,10.13
2018-12-23T07:44:43.379Z,10.18
2018-12-23T07:45:43.374Z,10.20
2018-12-23T07:46:43.363Z,10.14
2018-12-23T07:47:43.355Z,10.16
2018-12-23T07:48:43.346Z,10.26
2018-12-23T07:49:43.331Z,10.18
2018-12-23T07:50:43.320Z,10.14
2018-12-23T07:51:43.311Z,10.24
2018-12-23T07:52:43.302Z,10.16
2018-12-23T07:53:43.297Z,10.16
2018-12-23T07:54:43.287Z,10.18
2018-12-23T07:55:43.276Z,10.20
2018-12-23T07:56:43.267Z,10.25
2018-12-23T07:57:43.254Z,10.25
2018-12-23T07:58:43.245Z,10.25
2018-12-23T07:59:43.238Z,10.18
2018-12-23T08:00:43.230Z,10.13
2018-12-23T08:01:43.216Z,10.22
2018-12-23T08:02:43.204Z,10.24
2018-12-23T08:03:43.196Z,10.25
2018-12-23T08:04:43.186Z,10.20
2018-12-23T08:05:43.182Z,10.25
2018-12-23T08:06:43.172Z,10.25
2018-12-23T08:07:43.162Z,10.20
2018-12-23T08:08:43.152Z,10.17
2018-12-23T08:09:43.139Z,10.34
2018-12-23T08:10:43.131Z,10.26
2018-12-23T08:11:43.117Z,10.31
2018-12-23T08:12:43.110Z,10.22
2018-12-23T08:13:43.105Z,10.22
2018-12-23T08:14:43.093Z,10.17
2018-12-23T08:15:43.079Z,10.38
2018-12-23T08:16:43.069Z,10.24
2018-12-23T08:17:43.066Z,10.24
2018-12-23T08:18:43.056Z,10.29
2018-12-23T08:19:43.047Z,10.20
2018-12-23T08:20:43.037Z,10.26
2018-12-23T08:21:43.025Z,10.34
2018-12-23T08:22:43.012Z,10.39
2018-12-23T08:23:43.003Z,10.34
2018-12-23T08:24:42.993Z,10.36
2018-12-23T08:25:42.988Z,10.38
2018-12-23T08:26:42.979Z,10.29
2018-12-23T08:27:42.969Z,10.35
2018-12-23T08:28:42.960Z,10.38
2018-12-23T08:29:42.947Z,10.38
2018-12-23T08:30:42.937Z,10.35
2018-12-23T08:31:42.932Z,10.46
2018-12-23T08:32:42.922Z,10.46
2018-12-23T08:33:42.916Z,10.44
2018-12-23T08:34:42.902Z,10.46
2018-12-23T08:35:42.891Z,10.46
2018-12-23T08:36:42.879Z,10.43
2018-12-23T08:37:44.743Z,10.47
2018-12-23T08:38:42.864Z,10.44
2018-12-23T08:39:42.855Z,10.44
2018-12-23T08:40:42.845Z,10.47
2018-12-23T08:41:42.832Z,10.52
2018-12-23T08:42:42.821Z,10.62
2018-12-23T08:43:42.815Z,10.68
2018-12-23T08:44:42.804Z,10.70
2018-12-23T08:45:42.800Z,10.60
2018-12-23T08:46:42.790Z,10.66
2018-12-23T08:47:42.776Z,10.76
2018-12-23T08:48:42.766Z,10.80
2018-12-23T08:49:42.762Z,10.73
2018-12-23T08:50:42.752Z,10.69
2018-12-23T08:51:42.743Z,10.75
2018-12-23T08:52:42.739Z,10.83
2018-12-23T08:53:42.720Z,10.78
2018-12-23T08:54:42.709Z,10.93
2018-12-23T08:55:42.700Z,10.84
2018-12-23T08:56:42.691Z,10.83
2018-12-23T08:57:42.778Z,10.84
2018-12-23T08:58:42.677Z,10.81
2018-12-23T08:59:42.669Z,10.83
2018-12-23T09:00:42.659Z,10.87
2018-12-23T09:01:42.645Z,10.88
2018-12-23T09:02:42.636Z,10.90
2018-12-23T09:03:42.631Z,10.86
2018-12-23T09:04:42.624Z,10.80
2018-12-23T09:05:42.608Z,10.90
2018-12-23T09:06:42.598Z,10.87
2018-12-23T09:07:42.589Z,10.88
2018-12-23T09:08:42.581Z,10.86
2018-12-23T09:09:42.575Z,10.88
2018-12-23T09:10:42.635Z,10.83
2018-12-23T09:11:43.046Z,10.93
2018-12-23T09:12:42.549Z,10.98
2018-12-23T09:13:42.534Z,10.90
2018-12-23T09:14:42.525Z,10.90
2018-12-23T09:15:42.516Z,10.90
2018-12-23T09:16:42.507Z,10.91
2018-12-23T09:17:42.504Z,11.02
2018-12-23T09:18:42.492Z,11.01
2018-12-23T09:19:42.480Z,11.11
2018-12-23T09:20:42.472Z,11.05
2018-12-23T09:21:42.467Z,11.13
2018-12-23T09:22:42.461Z,11.05
2018-12-23T09:23:42.447Z,11.21
2018-12-23T09:24:42.437Z,11.13
2018-12-23T09:25:42.424Z,11.16
2018-12-23T09:26:42.415Z,11.21
2018-12-23T09:27:42.410Z,11.09
2018-12-23T09:28:42.399Z,11.21
2018-12-23T09:29:42.394Z,11.21
2018-12-23T09:30:42.385Z,11.28
2018-12-23T09:31:42.374Z,11.27
2018-12-23T09:32:42.366Z,11.27
2018-12-23T09:33:42.352Z,11.30
2018-12-23T09:34:42.342Z,11.31
2018-12-23T09:35:42.345Z,11.27
2018-12-23T09:36:42.330Z,11.31
2018-12-23T09:37:42.316Z,11.30
2018-12-23T09:38:42.307Z,11.33
2018-12-23T09:39:42.298Z,11.28
2018-12-23T09:40:42.288Z,11.30
2018-12-23T09:41:42.285Z,11.35
2018-12-23T09:42:42.276Z,11.33
2018-12-23T09:43:42.268Z,11.39
2018-12-23T09:44:42.261Z,11.28
2018-12-23T09:45:42.244Z,11.28
2018-12-23T09:46:42.235Z,11.51
2018-12-23T09:47:42.226Z,11.41
2018-12-23T09:48:42.217Z,11.39
2018-12-23T09:49:42.213Z,11.44
2018-12-23T09:50:42.203Z,11.45
2018-12-23T09:51:42.192Z,11.49
2018-12-23T09:52:42.182Z,11.49
2018-12-23T09:53:42.177Z,11.48
2018-12-23T09:54:42.167Z,11.51
2018-12-23T09:55:42.160Z,11.54
2018-12-23T09:56:42.152Z,11.51
2018-12-23T09:57:42.138Z,11.51
2018-12-23T09:58:42.128Z,11.53
2018-12-23T09:59:42.120Z,11.54
2018-12-23T10:00:42.111Z,11.53
2018-12-23T10:01:42.107Z,11.53
2018-12-23T10:02:42.099Z,11.56
2018-12-23T10:03:42.090Z,11.60
2018-12-23T10:04:42.081Z,11.53
2018-12-23T10:05:42.068Z,11.57
2018-12-23T10:06:42.058Z,11.60
2018-12-23T10:07:42.055Z,11.54
2018-12-23T10:08:42.045Z,11.57
2018-12-23T10:09:42.035Z,11.53
2018-12-23T10:10:42.023Z,11.53
2018-12-23T10:11:42.015Z,11.60
2018-12-23T10:12:42.007Z,11.60
2018-12-23T10:13:42.005Z,11.62
2018-12-23T10:14:41.996Z,11.59
2018-12-23T10:15:41.984Z,11.66
2018-12-23T10:16:41.979Z,11.62
2018-12-23T10:17:41.964Z,11.59
2018-12-23T10:18:41.953Z,11.56
2018-12-23T10:19:41.945Z,11.57
2018-12-23T10:20:41.936Z,11.57
2018-12-23T10:21:41.992Z,11.49
2018-12-23T10:22:41.923Z,11.53
2018-12-23T10:23:41.910Z,11.54
2018-12-23T10:24:41.901Z,11.49
2018-12-23T10:25:41.897Z,11.59
2018-12-23T10:26:41.887Z,11.44
2018-12-23T10:27:41.880Z,11.57
2018-12-23T10:28:41.873Z,11.57
2018-12-23T10:29:41.861Z,11.53
2018-12-23T10:30:41.849Z,11.42
2018-12-23T10:31:41.841Z,11.56
2018-12-23T10:32:41.833Z,11.45
2018-12-23T10:33:41.827Z,11.45
2018-12-23T10:34:41.820Z,11.51
2018-12-23T10:35:41.810Z,11.48
2018-12-23T10:36:41.802Z,11.48
2018-12-23T10:37:41.788Z,11.46
2018-12-23T10:38:41.780Z,11.42
2018-12-23T10:39:41.775Z,11.49
2018-12-23T10:40:41.766Z,11.49
2018-12-23T10:41:41.752Z,11.42
2018-12-23T10:42:41.743Z,11.48
2018-12-23T10:43:41.735Z,11.48
2018-12-23T10:44:41.726Z,11.46
2018-12-23T10:45:41.722Z,11.44
2018-12-23T10:46:41.712Z,11.53
2018-12-23T10:47:41.749Z,11.51
2018-12-23T10:48:41.817Z,11.46
2018-12-23T10:49:41.683Z,11.41
2018-12-23T10:50:41.673Z,11.49
2018-12-23T10:51:41.666Z,11.26
2018-12-23T10:52:41.657Z,11.24
2018-12-23T10:53:41.653Z,11.21
2018-12-23T10:54:41.643Z,11.23
2018-12-23T10:55:41.630Z,11.24
2018-12-23T10:56:41.622Z,11.27
2018-12-23T10:57:41.618Z,11.23
2018-12-23T10:58:41.608Z,11.28
2018-12-23T10:59:41.598Z,11.27
2018-12-23T11:00:41.590Z,11.24
2018-12-23T11:01:41.579Z,11.19
2018-12-23T11:02:41.569Z,11.20
2018-12-23T11:03:41.558Z,11.21
2018-12-23T11:04:41.550Z,11.17
2018-12-23T11:05:41.547Z,11.17
2018-12-23T11:06:41.536Z,11.13
2018-12-23T11:07:41.529Z,11.09
2018-12-23T11:08:41.523Z,11.05
2018-12-23T11:09:41.505Z,11.13
2018-12-23T11:10:41.496Z,11.17
2018-12-23T11:11:41.496Z,11.19
2018-12-23T11:12:41.483Z,11.06
2018-12-23T11:13:41.471Z,11.17
2018-12-23T11:14:41.461Z,11.16
2018-12-23T11:15:41.451Z,11.19
2018-12-23T11:16:41.443Z,11.24
2018-12-23T11:17:41.439Z,11.16
2018-12-23T11:18:41.430Z,11.21
2018-12-23T11:19:41.421Z,11.11
2018-12-23T11:20:41.420Z,11.13
2018-12-23T11:21:41.400Z,11.27
2018-12-23T11:22:41.388Z,11.12
2018-12-23T11:23:41.384Z,11.20
2018-12-23T11:24:41.371Z,11.16
2018-12-23T11:25:41.368Z,11.16
2018-12-23T11:26:41.360Z,11.03
2018-12-23T11:27:41.345Z,11.01
2018-12-23T11:28:41.335Z,11.12
2018-12-23T11:29:41.332Z,11.05
2018-12-23T11:30:41.322Z,11.13
2018-12-23T11:31:41.312Z,11.05
2018-12-23T11:32:41.305Z,11.02
2018-12-23T11:33:41.291Z,11.05
2018-12-23T11:34:41.280Z,11.05
2018-12-23T11:35:41.273Z,10.98
2018-12-23T11:36:41.266Z,10.95
2018-12-23T11:37:41.261Z,10.93
2018-12-23T11:38:41.252Z,10.88
2018-12-23T11:39:41.244Z,10.98
2018-12-23T11:40:41.231Z,10.83
2018-12-23T11:41:41.222Z,10.81
2018-12-23T11:42:41.209Z,10.81
2018-12-23T11:43:41.204Z,10.94
2018-12-23T11:44:41.198Z,10.94
2018-12-23T11:45:41.285Z,10.99
2018-12-23T11:46:41.178Z,10.86
2018-12-23T11:47:41.164Z,10.84
2018-12-23T11:48:41.156Z,10.91
2018-12-23T11:49:41.151Z,10.95
2018-12-23T11:50:41.141Z,10.91
2018-12-23T11:51:41.132Z,10.93
2018-12-23T11:52:41.134Z,10.91
2018-12-23T11:53:41.109Z,10.91
2018-12-23T11:54:41.101Z,11.02
2018-12-23T11:55:41.093Z,10.91
2018-12-23T11:56:41.082Z,10.95
2018-12-23T11:57:41.076Z,10.95
2018-12-23T11:58:41.068Z,10.94
2018-12-23T11:59:41.057Z,10.95
2018-12-23T12:00:41.045Z,11.02
2018-12-23T12:01:41.045Z,10.91
2018-12-23T12:02:41.031Z,10.99
2018-12-23T12:03:41.023Z,10.87
2018-12-23T12:04:41.014Z,10.90
2018-12-23T12:05:41.000Z,10.88
2018-12-23T12:06:40.990Z,10.83
2018-12-23T12:07:40.981Z,10.84
2018-12-23T12:08:43.863Z,10.81
2018-12-23T12:09:40.968Z,10.81
2018-12-23T12:10:40.960Z,10.83
2018-12-23T12:11:40.950Z,10.88
2018-12-23T12:12:40.946Z,10.83
2018-12-23T12:13:40.928Z,10.80
2018-12-23T12:14:40.932Z,10.88
2018-12-23T12:15:40.914Z,10.70
2018-12-23T12:16:40.903Z,10.70
2018-12-23T12:17:40.891Z,10.69
2018-12-23T12:18:40.885Z,10.63
2018-12-23T12:19:40.872Z,10.63
2018-12-23T12:20:40.862Z,10.68
2018-12-23T12:21:40.859Z,10.72
2018-12-23T12:22:41.329Z,10.72
2018-12-23T12:23:40.841Z,10.70
2018-12-23T12:24:40.831Z,10.75
2018-12-23T12:25:40.817Z,10.86
2018-12-23T12:26:40.806Z,10.86
2018-12-23T12:27:40.798Z,10.68
2018-12-23T12:28:40.801Z,10.69
2018-12-23T12:29:40.788Z,10.70
2018-12-23T12:30:40.775Z,10.76
2018-12-23T12:31:40.794Z,10.70
2018-12-23T12:32:40.756Z,10.80
2018-12-23T12:33:40.751Z,10.83
2018-12-23T12:34:40.738Z,10.75
2018-12-23T12:35:40.730Z,10.90
2018-12-23T12:36:40.719Z,10.83
2018-12-23T12:37:40.714Z,10.83
2018-12-23T12:38:40.696Z,10.84
2018-12-23T12:39:40.687Z,10.86
2018-12-23T12:40:40.678Z,10.83
2018-12-23T12:41:40.674Z,10.87
2018-12-23T12:42:40.667Z,10.90
2018-12-23T12:43:40.669Z,10.91
2018-12-23T12:44:40.652Z,11.01
2018-12-23T12:45:40.633Z,11.05
2018-12-23T12:46:40.629Z,11.05
2018-12-23T12:47:40.618Z,11.13
2018-12-23T12:48:40.623Z,11.09
2018-12-23T12:49:40.610Z,11.09
2018-12-23T12:50:40.586Z,11.16
2018-12-23T12:51:40.577Z,11.20
2018-12-23T12:52:40.572Z,11.13
2018-12-23T12:53:40.567Z,11.17
2018-12-23T12:54:40.554Z,11.02
2018-12-23T12:55:40.547Z,11.08
2018-12-23T12:56:40.545Z,11.05
2018-12-23T12:57:40.526Z,10.94
2018-12-23T12:58:40.513Z,11.01
2018-12-23T12:59:40.505Z,10.83
2018-12-23T13:00:40.498Z,10.91
2018-12-23T13:01:40.491Z,10.86
2018-12-23T13:02:40.481Z,10.87
2018-12-23T13:03:40.483Z,10.72